createdAt,value
2023-03-12T00:00:08.647Z,99569.53
2023-03-12T00:02:36.526Z,99570.94
2023-03-12T00:05:04.786Z,99562.66
2023-03-12T00:07:32.424Z,99562.50
2023-03-12T00:10:00.027Z,99562.50
2023-03-12T00:12:27.670Z,99565.84
2023-03-12T00:14:55.317Z,99564.06
2023-03-12T00:17:24.356Z,99568.13
2023-03-12T00:19:53.461Z,99565.25
2023-03-12T00:22:22.890Z,99565.72
2023-03-12T00:24:52.247Z,99567.06
2023-03-12T00:27:20.437Z,99567.59
2023-03-12T00:29:48.290Z,99567.50
2023-03-12T00:32:16.426Z,99576.81
2023-03-12T00:34:45.428Z,99571.53
2023-03-12T00:37:13.363Z,99574.78
2023-03-12T00:39:41.041Z,99583.63
2023-03-12T00:42:08.943Z,99571.03
2023-03-12T00:44:36.628Z,99573.88
2023-03-12T00:47:04.579Z,99573.59
2023-03-12T00:49:32.369Z,99572.75
2023-03-12T00:52:01.371Z,99565.44
2023-03-12T00:54:29.123Z,99553.34
2023-03-12T00:56:56.788Z,99555.03
2023-03-12T00:59:24.516Z,99559.34
2023-03-12T01:01:52.166Z,99560.28
2023-03-12T01:04:19.897Z,99561.75
2023-03-12T01:06:47.596Z,99571.28
2023-03-12T01:09:16.831Z,99568.59
2023-03-12T01:11:44.775Z,99558.97
2023-03-12T01:14:12.495Z,99565.53
2023-03-12T01:16:40.217Z,99555.69
2023-03-12T01:19:08.138Z,99557.06
2023-03-12T01:21:35.807Z,99564.41
2023-03-12T01:24:03.604Z,99562.44
2023-03-12T01:26:32.621Z,99562.00
2023-03-12T01:29:00.393Z,99564.56
2023-03-12T01:31:28.416Z,99560.28
2023-03-12T01:33:56.351Z,99563.19
2023-03-12T01:36:26.041Z,99559.97
2023-03-12T01:38:55.067Z,99561.91
2023-03-12T01:41:24.291Z,99573.22
2023-03-12T01:43:53.809Z,99559.22
2023-03-12T01:46:25.909Z,99552.19
2023-03-12T01:48:58.551Z,99563.19
2023-03-12T01:51:30.016Z,99574.31
2023-03-12T01:54:01.016Z,99563.66
2023-03-12T01:56:33.031Z,99556.03
2023-03-12T01:59:09.146Z,99549.03
2023-03-12T02:01:36.975Z,99546.81
2023-03-12T02:04:05.049Z,99529.59
2023-03-12T02:06:38.743Z,99533.47
2023-03-12T02:09:08.307Z,99529.03
2023-03-12T02:11:36.165Z,99528.06
2023-03-12T02:14:05.267Z,99537.91
2023-03-12T02:16:33.513Z,99531.09
2023-03-12T02:19:05.642Z,99532.09
2023-03-12T02:21:36.188Z,99528.94
2023-03-12T02:24:09.340Z,99527.34
2023-03-12T02:26:40.055Z,99532.13
2023-03-12T02:29:09.893Z,99528.47
2023-03-12T02:31:41.789Z,99530.69
2023-03-12T02:34:09.600Z,99524.81
2023-03-12T02:36:37.736Z,99525.94
2023-03-12T02:39:06.636Z,99512.91
2023-03-12T02:41:37.885Z,99505.88
2023-03-12T02:44:11.176Z,99518.31
2023-03-12T02:46:41.822Z,99513.19
2023-03-12T02:49:11.847Z,99516.06
2023-03-12T02:51:39.457Z,99507.16
2023-03-12T02:54:07.636Z,99508.25
2023-03-12T02:56:36.027Z,99515.59
2023-03-12T02:59:04.826Z,99517.50
2023-03-12T03:01:37.173Z,99523.06
2023-03-12T03:04:08.348Z,99492.53
2023-03-12T03:06:38.655Z,99517.50
2023-03-12T03:09:06.569Z,99520.19
2023-03-12T03:11:34.367Z,99519.56
2023-03-12T03:14:06.885Z,99516.53
2023-03-12T03:16:35.472Z,99512.41
2023-03-12T03:19:04.690Z,99509.06
2023-03-12T03:21:32.777Z,99506.97
2023-03-12T03:24:00.525Z,99502.97
2023-03-12T03:26:28.466Z,99504.06
2023-03-12T03:28:56.380Z,99507.53
2023-03-12T03:31:24.157Z,99505.97
2023-03-12T03:33:52.265Z,99502.28
2023-03-12T03:36:23.169Z,99500.84
2023-03-12T03:38:58.900Z,99500.56
2023-03-12T03:41:26.998Z,99505.00
2023-03-12T03:43:58.605Z,99501.34
2023-03-12T03:46:27.620Z,99492.41
2023-03-12T03:49:01.309Z,99488.75
2023-03-12T03:51:31.581Z,99488.72
2023-03-12T03:54:05.062Z,99490.66
2023-03-12T03:56:32.976Z,99503.19
2023-03-12T03:59:03.079Z,99506.22
2023-03-12T04:01:32.169Z,99513.09
2023-03-12T04:04:01.608Z,99519.28
2023-03-12T04:06:32.453Z,99510.41
2023-03-12T04:09:00.497Z,99513.78
2023-03-12T04:11:30.124Z,99508.03
2023-03-12T04:14:04.378Z,99508.34
2023-03-12T04:16:35.152Z,99512.97
2023-03-12T04:19:03.798Z,99471.00
2023-03-12T04:21:33.003Z,99505.81
2023-03-12T04:24:00.688Z,99499.63
2023-03-12T04:26:32.316Z,99499.31
2023-03-12T04:29:01.267Z,99489.78
2023-03-12T04:31:29.848Z,99492.47
2023-03-12T04:33:57.547Z,99489.22
2023-03-12T04:36:26.232Z,99488.09
2023-03-12T04:38:57.415Z,99483.19
2023-03-12T04:41:29.964Z,99475.47
2023-03-12T04:44:14.177Z,99485.63
2023-03-12T04:46:43.700Z,99489.47
2023-03-12T04:49:14.860Z,99472.72
2023-03-12T04:51:43.652Z,99485.41
2023-03-12T04:54:12.678Z,99452.03
2023-03-12T04:56:42.209Z,99469.38
2023-03-12T04:59:10.654Z,99466.97
2023-03-12T05:01:39.064Z,99462.19
2023-03-12T05:04:13.374Z,99472.56
2023-03-12T05:06:41.126Z,99469.38
2023-03-12T05:09:08.914Z,99466.25
2023-03-12T05:11:39.935Z,99471.13
2023-03-12T05:14:10.143Z,99470.34
2023-03-12T05:16:38.674Z,99480.63
2023-03-12T05:19:06.945Z,99464.06
2023-03-12T05:21:34.896Z,99496.34
2023-03-12T05:24:02.583Z,99498.34
2023-03-12T05:26:32.967Z,99485.03
2023-03-12T05:29:11.944Z,99489.72
2023-03-12T05:31:39.734Z,99475.25
2023-03-12T05:34:09.123Z,99489.22
2023-03-12T05:36:39.844Z,99486.22
2023-03-12T05:39:08.204Z,99501.16
2023-03-12T05:41:36.383Z,99495.97
2023-03-12T05:44:15.956Z,99490.13
2023-03-12T05:46:45.617Z,99501.06
2023-03-12T05:49:13.266Z,99497.06
2023-03-12T05:51:41.766Z,99493.97
2023-03-12T05:54:10.033Z,99483.66
2023-03-12T05:56:38.471Z,99486.47
2023-03-12T05:59:07.502Z,99484.47
2023-03-12T06:01:36.557Z,99487.50
2023-03-12T06:04:06.242Z,99483.78
2023-03-12T06:06:35.555Z,99478.09
2023-03-12T06:09:03.853Z,99475.31
2023-03-12T06:11:33.746Z,99482.97
2023-03-12T06:14:01.729Z,99483.53
2023-03-12T06:16:30.574Z,99478.25
2023-03-12T06:19:01.908Z,99479.44
2023-03-12T06:21:31.807Z,99474.00
2023-03-12T06:24:01.177Z,99477.00
2023-03-12T06:26:40.386Z,99476.78
2023-03-12T06:29:08.374Z,99475.91
2023-03-12T06:31:38.729Z,99477.16
2023-03-12T06:34:08.234Z,99480.09
2023-03-12T06:36:35.887Z,99471.03
2023-03-12T06:39:06.144Z,99467.78
2023-03-12T06:41:33.822Z,99474.75
2023-03-12T06:44:03.600Z,99474.13
2023-03-12T06:46:31.300Z,99473.28
2023-03-12T06:48:59.088Z,99464.47
2023-03-12T06:51:28.195Z,99458.06
2023-03-12T06:53:55.851Z,99460.44
2023-03-12T06:56:23.565Z,99463.00
2023-03-12T06:58:51.167Z,99453.53
2023-03-12T07:01:18.804Z,99454.94
2023-03-12T07:03:46.640Z,99447.78
2023-03-12T07:06:15.725Z,99436.84
2023-03-12T07:08:44.827Z,99437.66
2023-03-12T07:11:13.513Z,99448.09
2023-03-12T07:13:41.658Z,99446.44
2023-03-12T07:16:09.895Z,99454.25
2023-03-12T07:18:37.698Z,99447.06
2023-03-12T07:21:06.116Z,99459.06
2023-03-12T07:23:33.802Z,99454.41
2023-03-12T07:26:05.452Z,99454.81
2023-03-12T07:28:33.118Z,99456.00
2023-03-12T07:31:02.430Z,99459.06
2023-03-12T07:33:30.193Z,99461.22
2023-03-12T07:35:58.107Z,99456.41
2023-03-12T07:38:27.259Z,99418.66
2023-03-12T07:40:56.291Z,99447.38
2023-03-12T07:43:25.883Z,99449.41
2023-03-12T07:45:55.297Z,99455.66
2023-03-12T07:48:22.983Z,99457.75
2023-03-12T07:50:50.955Z,99452.53
2023-03-12T07:53:18.810Z,99437.88
2023-03-12T07:55:48.232Z,99452.72
2023-03-12T07:58:16.610Z,99405.94
2023-03-12T08:00:46.485Z,99461.53
2023-03-12T08:03:14.851Z,99454.91
2023-03-12T08:05:42.771Z,99446.06
2023-03-12T08:08:11.069Z,99463.63
2023-03-12T08:10:38.932Z,99473.50
2023-03-12T08:13:06.759Z,99469.97
2023-03-12T08:15:34.869Z,99466.66
2023-03-12T08:18:04.305Z,99458.44
2023-03-12T08:20:32.080Z,99461.16
2023-03-12T08:22:59.725Z,99468.28
2023-03-12T08:25:27.378Z,99473.94
2023-03-12T08:27:55.491Z,99471.34
2023-03-12T08:30:23.463Z,99485.03
2023-03-12T08:32:51.261Z,99468.75
2023-03-12T08:35:20.273Z,99475.88
2023-03-12T08:37:47.990Z,99475.63
2023-03-12T08:40:15.652Z,99471.53
2023-03-12T08:42:44.920Z,99471.00
2023-03-12T08:45:14.431Z,99468.28
2023-03-12T08:47:43.373Z,99460.78
2023-03-12T08:50:13.225Z,99432.81
2023-03-12T08:52:42.400Z,99459.41
2023-03-12T08:55:11.074Z,99461.44
2023-03-12T08:57:39.787Z,99450.38
2023-03-12T09:00:15.000Z,99456.38
2023-03-12T09:02:44.623Z,99448.78
2023-03-12T09:05:12.793Z,99448.66
2023-03-12T09:07:42.570Z,99439.91
2023-03-12T09:10:11.855Z,99445.94
2023-03-12T09:12:39.553Z,99444.88
2023-03-12T09:15:08.739Z,99440.59
2023-03-12T09:17:36.397Z,99449.59
2023-03-12T09:20:08.159Z,99455.84
2023-03-12T09:22:37.037Z,99460.56
2023-03-12T09:25:07.489Z,99460.22
2023-03-12T09:27:37.775Z,99457.63
2023-03-12T09:30:07.555Z,99459.03
2023-03-12T09:32:35.390Z,99454.22
2023-03-12T09:35:03.142Z,99402.19
2023-03-12T09:37:32.237Z,99483.75
2023-03-12T09:39:59.976Z,99474.81
2023-03-12T09:42:35.594Z,99475.84
2023-03-12T09:45:06.446Z,99475.84
2023-03-12T09:47:38.384Z,99421.34
2023-03-12T09:50:18.367Z,99484.22
2023-03-12T09:52:52.024Z,99485.09
2023-03-12T09:55:21.843Z,99386.69
2023-03-12T09:57:52.783Z,99492.28
2023-03-12T10:00:23.156Z,99483.84
2023-03-12T10:03:18.404Z,99491.25
2023-03-12T10:05:54.481Z,99495.75
2023-03-12T10:08:31.195Z,99503.06
2023-03-12T10:11:04.084Z,99508.97
2023-03-12T10:13:44.763Z,99511.53
2023-03-12T10:16:26.002Z,99517.19
2023-03-12T10:19:20.437Z,99516.97
2023-03-12T10:21:54.264Z,99519.50
2023-03-12T10:24:37.903Z,99525.78
2023-03-12T10:27:13.151Z,99518.19
2023-03-12T10:29:44.980Z,99510.19
2023-03-12T10:32:18.509Z,99525.16
2023-03-12T10:34:48.640Z,99512.88
2023-03-12T10:37:22.054Z,99515.25
2023-03-12T10:39:50.558Z,99516.66
2023-03-12T10:42:20.649Z,99516.41
2023-03-12T10:44:53.539Z,99530.22
2023-03-12T10:47:35.213Z,99495.09
2023-03-12T10:50:18.073Z,99508.28
2023-03-12T10:52:47.574Z,99511.19
2023-03-12T10:55:23.073Z,99504.53
2023-03-12T10:57:51.413Z,99512.59
2023-03-12T11:00:23.321Z,99495.63
2023-03-12T11:03:00.545Z,99511.63
2023-03-12T11:05:31.170Z,99516.53
2023-03-12T11:08:00.293Z,99514.53
2023-03-12T11:10:41.660Z,99518.25
2023-03-12T11:13:24.454Z,99508.38
2023-03-12T11:15:54.506Z,99509.72
2023-03-12T11:18:32.150Z,99512.09
2023-03-12T11:21:17.844Z,99523.69
2023-03-12T11:24:06.992Z,99520.00
2023-03-12T11:26:40.674Z,99524.06
2023-03-12T11:29:18.394Z,99535.38
2023-03-12T11:31:57.434Z,99536.84
2023-03-12T11:34:28.141Z,99533.34
2023-03-12T11:37:06.001Z,99506.72
2023-03-12T11:39:43.963Z,99504.63
2023-03-12T11:42:25.226Z,99513.88
2023-03-12T11:45:00.430Z,99515.41
2023-03-12T11:47:40.717Z,99515.69
2023-03-12T11:50:22.232Z,99518.94
2023-03-12T11:53:07.146Z,99521.59
2023-03-12T11:55:48.433Z,99513.19
2023-03-12T11:58:33.218Z,99518.63
2023-03-12T12:01:10.903Z,99512.25
2023-03-12T12:04:14.130Z,99501.28
2023-03-12T12:06:56.139Z,99494.28
2023-03-12T12:09:36.057Z,99493.72
2023-03-12T12:12:15.383Z,99487.31
2023-03-12T12:14:57.052Z,99481.13
2023-03-12T12:17:40.018Z,99471.16
2023-03-12T12:20:22.074Z,99473.00
2023-03-12T12:23:01.868Z,99463.06
2023-03-12T12:25:43.895Z,99462.44
2023-03-12T12:28:51.504Z,99458.69
2023-03-12T12:31:35.630Z,99449.72
2023-03-12T12:34:22.673Z,99463.09
2023-03-12T12:36:56.838Z,99468.16
2023-03-12T12:39:32.139Z,99460.94
2023-03-12T12:42:05.668Z,99474.75
2023-03-12T12:44:36.679Z,99474.41
2023-03-12T12:47:07.973Z,99462.56
2023-03-12T12:49:44.979Z,99472.06
2023-03-12T12:52:19.954Z,99473.56
2023-03-12T12:54:57.818Z,99461.91
2023-03-12T12:57:33.899Z,99451.06
2023-03-12T13:00:15.488Z,99464.47
2023-03-12T13:02:46.753Z,99464.88
2023-03-12T13:05:23.413Z,99461.72
2023-03-12T13:07:52.433Z,99456.22
2023-03-12T13:10:48.964Z,99465.63
2023-03-12T13:13:27.390Z,99403.44
2023-03-12T13:16:20.846Z,99450.34
2023-03-12T13:18:58.186Z,99455.06
2023-03-12T13:21:31.882Z,99458.97
2023-03-12T13:24:12.370Z,99453.81
2023-03-12T13:26:53.635Z,99447.94
2023-03-12T13:29:24.652Z,99448.00
2023-03-12T13:31:52.330Z,99444.44
2023-03-12T13:34:56.974Z,99430.22
2023-03-12T13:37:57.877Z,99426.59
2023-03-12T13:40:56.495Z,99408.88
2023-03-12T13:43:43.215Z,99414.34
2023-03-12T13:46:28.693Z,99411.09
2023-03-12T13:49:00.870Z,99415.88
2023-03-12T13:51:29.205Z,99422.09
2023-03-12T13:54:00.230Z,99414.28
2023-03-12T13:56:31.669Z,99404.72
2023-03-12T13:59:02.610Z,99397.03
2023-03-12T14:01:35.911Z,99399.09
2023-03-12T14:04:11.581Z,99416.59
2023-03-12T14:06:57.518Z,99411.41
2023-03-12T14:09:33.341Z,99407.78
2023-03-12T14:12:07.416Z,99407.75
2023-03-12T14:15:05.010Z,99398.56
2023-03-12T14:17:35.501Z,99399.53
2023-03-12T14:20:07.352Z,99402.69
2023-03-12T14:22:38.346Z,99394.47
2023-03-12T14:25:13.660Z,99388.22
2023-03-12T14:27:47.191Z,99397.50
2023-03-12T14:30:23.427Z,99391.16
2023-03-12T14:32:56.002Z,99395.75
2023-03-12T14:35:28.340Z,99417.13
2023-03-12T14:38:01.951Z,99393.44
2023-03-12T14:40:39.248Z,99399.72
2023-03-12T14:43:23.289Z,99387.56
2023-03-12T14:45:52.991Z,99381.34
2023-03-12T14:48:22.687Z,99384.50
2023-03-12T14:50:50.686Z,99369.06
2023-03-12T14:53:24.414Z,99369.75
2023-03-12T14:56:03.659Z,99369.91
2023-03-12T14:58:34.878Z,99366.19
2023-03-12T15:01:05.706Z,99363.50
2023-03-12T15:03:41.581Z,99373.44
2023-03-12T15:06:18.457Z,99372.22
2023-03-12T15:08:46.877Z,99352.94
2023-03-12T15:11:14.587Z,99369.34
2023-03-12T15:13:43.655Z,99383.47
2023-03-12T15:16:11.521Z,99378.88
2023-03-12T15:18:39.503Z,99380.75
2023-03-12T15:21:07.534Z,99376.00
2023-03-12T15:23:38.913Z,99372.38
2023-03-12T15:26:15.152Z,99369.25
2023-03-12T15:28:44.771Z,99373.63
2023-03-12T15:31:14.895Z,99371.22
2023-03-12T15:33:43.590Z,99367.72
2023-03-12T15:36:25.697Z,99371.78
2023-03-12T15:38:56.410Z,99360.81
2023-03-12T15:41:28.972Z,99354.44
2023-03-12T15:44:00.562Z,99360.75
2023-03-12T15:46:29.249Z,99357.63
2023-03-12T15:49:00.182Z,99356.84
2023-03-12T15:51:31.195Z,99382.41
2023-03-12T15:54:03.843Z,99383.25
2023-03-12T15:56:33.248Z,99387.63
2023-03-12T15:59:05.459Z,99378.94
2023-03-12T16:01:46.149Z,99382.13
2023-03-12T16:04:14.415Z,99375.81
2023-03-12T16:06:43.959Z,99375.00
2023-03-12T16:09:17.193Z,99383.28
2023-03-12T16:11:45.263Z,99385.25
2023-03-12T16:14:18.505Z,99391.94
2023-03-12T16:16:46.926Z,99393.91
2023-03-12T16:19:15.674Z,99386.03
2023-03-12T16:21:44.623Z,99387.59
2023-03-12T16:24:12.791Z,99368.38
2023-03-12T16:26:48.983Z,99393.53
2023-03-12T16:29:19.857Z,99386.09
2023-03-12T16:31:51.920Z,99374.25
2023-03-12T16:34:19.625Z,99375.00
2023-03-12T16:36:47.322Z,99376.25
2023-03-12T16:39:15.869Z,99382.50
2023-03-12T16:41:45.353Z,99383.75
2023-03-12T16:44:18.303Z,99376.25
2023-03-12T16:46:47.760Z,99382.94
2023-03-12T16:49:16.566Z,99396.31
2023-03-12T16:51:44.407Z,99409.69
2023-03-12T16:54:12.627Z,99384.53
2023-03-12T16:56:44.092Z,99395.16
2023-03-12T16:59:20.157Z,99402.63
2023-03-12T17:01:49.081Z,99413.25
2023-03-12T17:04:16.775Z,99415.22
2023-03-12T17:06:44.488Z,99409.72
2023-03-12T17:09:12.259Z,99405.03
2023-03-12T17:11:40.721Z,99413.31
2023-03-12T17:14:17.783Z,99430.22
2023-03-12T17:16:45.597Z,99429.81
2023-03-12T17:19:14.706Z,99433.78
2023-03-12T17:21:43.209Z,99425.50
2023-03-12T17:24:13.767Z,99426.63
2023-03-12T17:26:41.733Z,99431.59
2023-03-12T17:29:09.432Z,99442.22
2023-03-12T17:31:37.509Z,99455.31
2023-03-12T17:34:05.507Z,99449.78
2023-03-12T17:36:36.814Z,99448.19
2023-03-12T17:39:04.694Z,99454.75
2023-03-12T17:41:32.515Z,99449.00
2023-03-12T17:44:02.057Z,99449.50
2023-03-12T17:46:30.575Z,99452.25
2023-03-12T17:48:58.407Z,99458.56
2023-03-12T17:51:26.700Z,99442.44
2023-03-12T17:53:56.045Z,99458.59
2023-03-12T17:56:24.215Z,99464.47
2023-03-12T17:58:51.941Z,99470.41
2023-03-12T18:01:19.822Z,99465.69
2023-03-12T18:03:47.848Z,99469.22
2023-03-12T18:06:15.572Z,99476.31
2023-03-12T18:08:43.284Z,99471.59
2023-03-12T18:11:12.307Z,99466.06
2023-03-12T18:13:40.997Z,99474.34
2023-03-12T18:16:08.763Z,99474.31
2023-03-12T18:18:37.238Z,99482.59
2023-03-12T18:21:05.233Z,99470.78
2023-03-12T18:23:33.108Z,99465.66
2023-03-12T18:26:00.803Z,99466.47
2023-03-12T18:28:29.827Z,99464.50
2023-03-12T18:30:57.593Z,99463.34
2023-03-12T18:33:25.688Z,99465.69
2023-03-12T18:35:54.626Z,99457.81
2023-03-12T18:38:22.418Z,99457.81
2023-03-12T18:40:51.244Z,99459.78
2023-03-12T18:43:20.810Z,99460.16
2023-03-12T18:45:51.251Z,99465.66
2023-03-12T18:48:19.022Z,99464.88
2023-03-12T18:50:46.728Z,99462.13
2023-03-12T18:53:14.410Z,99465.28
2023-03-12T18:55:42.080Z,99462.13
2023-03-12T18:58:09.731Z,99459.38
2023-03-12T19:00:37.399Z,99460.97
2023-03-12T19:03:06.450Z,99459.41
2023-03-12T19:05:34.086Z,99460.97
2023-03-12T19:08:01.761Z,99471.19
2023-03-12T19:10:29.440Z,99463.31
2023-03-12T19:12:57.040Z,99470.00
2023-03-12T19:15:25.292Z,99484.16
2023-03-12T19:17:53.942Z,99468.03
2023-03-12T19:20:23.021Z,99475.50
2023-03-12T19:22:50.700Z,99475.91
2023-03-12T19:25:18.362Z,99477.47
2023-03-12T19:27:45.996Z,99477.47
2023-03-12T19:30:14.585Z,99484.56
2023-03-12T19:32:44.531Z,99478.66
2023-03-12T19:35:14.575Z,99491.22
2023-03-12T19:37:43.960Z,99472.34
2023-03-12T19:40:13.172Z,99486.91
2023-03-12T19:42:40.901Z,99484.16
2023-03-12T19:45:10.038Z,99478.63
2023-03-12T19:47:37.692Z,99480.22
2023-03-12T19:50:06.282Z,99485.72
2023-03-12T19:52:33.967Z,99492.00
2023-03-12T19:55:05.356Z,99491.22
2023-03-12T19:57:33.807Z,99465.69
2023-03-12T20:00:01.554Z,99480.59
2023-03-12T20:02:32.193Z,99482.94
2023-03-12T20:05:00.209Z,99484.53
2023-03-12T20:07:27.904Z,99484.53
2023-03-12T20:09:55.587Z,99485.69
2023-03-12T20:12:24.837Z,99483.75
2023-03-12T20:14:52.637Z,99482.97
2023-03-12T20:17:20.394Z,99473.91
2023-03-12T20:19:48.017Z,99482.16
2023-03-12T20:22:15.798Z,99479.03
2023-03-12T20:24:43.460Z,99473.09
2023-03-12T20:27:11.256Z,99474.28
2023-03-12T20:29:40.354Z,99482.13
2023-03-12T20:32:08.074Z,99475.06
2023-03-12T20:34:36.024Z,99471.13
2023-03-12T20:37:03.859Z,99467.22
2023-03-12T20:39:31.559Z,99467.19
2023-03-12T20:41:59.215Z,99466.78
2023-03-12T20:44:27.024Z,99461.25
2023-03-12T20:46:57.242Z,99459.69
2023-03-12T20:49:24.864Z,99456.16
2023-03-12T20:51:52.472Z,99451.03
2023-03-12T20:54:20.105Z,99457.31
2023-03-12T20:56:47.730Z,99442.78
2023-03-12T20:59:15.449Z,99448.66
2023-03-12T21:01:43.173Z,99451.44
2023-03-12T21:04:12.224Z,99441.19
2023-03-12T21:06:39.828Z,99440.78
2023-03-12T21:09:07.452Z,99447.13
2023-03-12T21:11:35.605Z,99442.34
2023-03-12T21:14:03.245Z,99451.44
2023-03-12T21:16:30.948Z,99438.84
2023-03-12T21:18:59.068Z,99432.19
2023-03-12T21:21:28.769Z,99424.28
2023-03-12T21:23:56.437Z,99432.97
2023-03-12T21:26:24.110Z,99427.81
2023-03-12T21:28:51.720Z,99430.94
2023-03-12T21:31:19.392Z,99429.78
2023-03-12T21:33:47.062Z,99434.84
2023-03-12T21:36:15.763Z,99405.81
2023-03-12T21:38:44.694Z,99425.41
2023-03-12T21:41:14.440Z,99430.91
2023-03-12T21:43:42.609Z,99431.34
2023-03-12T21:46:12.455Z,99426.59
2023-03-12T21:48:40.897Z,99426.25
2023-03-12T21:51:11.516Z,99416.47
2023-03-12T21:53:39.220Z,99418.41
2023-03-12T21:56:09.304Z,99408.22
2023-03-12T21:58:37.425Z,99399.16
2023-03-12T22:01:08.098Z,99401.53
2023-03-12T22:03:36.581Z,99407.06
2023-03-12T22:06:04.726Z,99402.34
2023-03-12T22:08:32.697Z,99399.97
2023-03-12T22:11:00.448Z,99390.91
2023-03-12T22:13:29.526Z,99388.16
2023-03-12T22:15:59.014Z,99382.25
2023-03-12T22:18:27.136Z,99386.97
2023-03-12T22:20:56.348Z,99378.31
2023-03-12T22:23:25.137Z,99364.56
2023-03-12T22:25:52.835Z,99355.88
2023-03-12T22:28:20.781Z,99367.31
2023-03-12T22:30:49.785Z,99352.00
2023-03-12T22:33:17.448Z,99352.38
2023-03-12T22:35:45.791Z,99346.09
2023-03-12T22:38:13.820Z,99355.09
2023-03-12T22:40:42.370Z,99359.81
2023-03-12T22:43:10.568Z,99359.81
2023-03-12T22:45:38.219Z,99356.72
2023-03-12T22:48:07.764Z,99353.97
2023-03-12T22:50:35.623Z,99352.72
2023-03-12T22:53:03.345Z,99368.47
2023-03-12T22:55:31.096Z,99353.59
2023-03-12T22:57:58.793Z,99352.34
2023-03-12T23:00:27.919Z,99344.47
2023-03-12T23:02:55.590Z,99336.59
2023-03-12T23:05:24.643Z,99329.09
2023-03-12T23:07:52.283Z,99326.34
2023-03-12T23:10:20.145Z,99316.66
2023-03-12T23:12:47.749Z,99327.97
2023-03-12T23:15:15.385Z,99339.03
2023-03-12T23:17:43.114Z,99342.47
2023-03-12T23:20:13.385Z,99342.53
2023-03-12T23:22:42.971Z,99347.25
2023-03-12T23:25:10.607Z,99342.91
2023-03-12T23:27:38.269Z,99337.47
2023-03-12T23:30:06.850Z,99333.88
2023-03-12T23:32:35.592Z,99323.72
2023-03-12T23:35:03.253Z,99326.06
2023-03-12T23:37:31.307Z,99327.59
2023-03-12T23:40:00.352Z,99326.41
2023-03-12T23:42:28.775Z,99331.13
2023-03-12T23:44:56.400Z,99313.50
2023-03-12T23:47:24.453Z,99309.56
2023-03-12T23:49:52.119Z,99304.81
2023-03-12T23:52:19.859Z,99314.22
2023-03-12T23:54:47.727Z,99313.06
2023-03-12T23:57:16.860Z,99301.66
2023-03-12T23:59:44.702Z,99293.03
